sensor_id;sensor_type;location;lat;lon;timestamp;P1;durP1;ratioP1;P2;durP2;ratioP2
81298;SDS011;70766;53.170;18.160;2024-03-23T00:53:34;11.50;;;2.40;;
81298;SDS011;70766;53.170;18.160;2024-03-23T00:56:02;8.70;;;1.70;;
81298;SDS011;70766;53.170;18.160;2024-03-23T00:58:31;12.30;;;2.60;;
81298;SDS011;70766;53.170;18.160;2024-03-23T01:00:58;10.60;;;2.10;;
81298;SDS011;70766;53.170;18.160;2024-03-23T01:03:26;9.50;;;2.30;;
81298;SDS011;70766;53.170;18.160;2024-03-23T01:05:54;13.60;;;2.40;;
81298;SDS011;70766;53.170;18.160;2024-03-23T01:08:22;15.20;;;3.00;;
81298;SDS011;70766;53.170;18.160;2024-03-23T01:10:54;11.80;;;2.60;;
81298;SDS011;70766;53.170;18.160;2024-03-23T01:13:23;13.80;;;2.00;;
81298;SDS011;70766;53.170;18.160;2024-03-23T01:15:51;16.80;;;2.50;;
81298;SDS011;70766;53.170;18.160;2024-03-23T01:18:20;14.30;;;3.10;;
81298;SDS011;70766;53.170;18.160;2024-03-23T01:20:49;12.90;;;3.30;;
81298;SDS011;70766;53.170;18.160;2024-03-23T01:23:18;9.40;;;2.40;;
81298;SDS011;70766;53.170;18.160;2024-03-23T01:25:55;13.70;;;2.30;;
81298;SDS011;70766;53.170;18.160;2024-03-23T01:28:23;15.90;;;3.00;;
81298;SDS011;70766;53.170;18.160;2024-03-23T01:30:51;13.00;;;2.60;;
81298;SDS011;70766;53.170;18.160;2024-03-23T01:33:19;13.80;;;2.80;;
81298;SDS011;70766;53.170;18.160;2024-03-23T01:35:47;17.40;;;2.20;;
81298;SDS011;70766;53.170;18.160;2024-03-23T01:38:15;17.20;;;2.60;;
81298;SDS011;70766;53.170;18.160;2024-03-23T01:40:43;14.00;;;2.30;;
81298;SDS011;70766;53.170;18.160;2024-03-23T01:43:10;11.80;;;2.20;;
81298;SDS011;70766;53.170;18.160;2024-03-23T01:45:38;15.00;;;2.50;;
81298;SDS011;70766;53.170;18.160;2024-03-23T01:48:07;10.80;;;2.20;;
81298;SDS011;70766;53.170;18.160;2024-03-23T01:50:35;12.00;;;2.80;;
81298;SDS011;70766;53.170;18.160;2024-03-23T01:53:03;9.30;;;2.60;;
81298;SDS011;70766;53.170;18.160;2024-03-23T01:55:33;15.50;;;3.20;;
81298;SDS011;70766;53.170;18.160;2024-03-23T01:58:05;14.20;;;2.90;;
81298;SDS011;70766;53.170;18.160;2024-03-23T02:00:34;12.40;;;3.00;;
81298;SDS011;70766;53.170;18.160;2024-03-23T02:03:02;13.70;;;3.00;;
81298;SDS011;70766;53.170;18.160;2024-03-23T02:05:30;14.10;;;3.30;;
81298;SDS011;70766;53.170;18.160;2024-03-23T02:07:58;16.00;;;3.10;;
81298;SDS011;70766;53.170;18.160;2024-03-23T02:10:26;11.40;;;2.80;;
81298;SDS011;70766;53.170;18.160;2024-03-23T02:12:54;16.10;;;3.30;;
81298;SDS011;70766;53.170;18.160;2024-03-23T02:15:22;18.70;;;3.30;;
81298;SDS011;70766;53.170;18.160;2024-03-23T02:17:49;12.70;;;3.50;;
81298;SDS011;70766;53.170;18.160;2024-03-23T02:20:17;17.60;;;3.50;;
81298;SDS011;70766;53.170;18.160;2024-03-23T02:22:45;12.50;;;2.90;;
81298;SDS011;70766;53.170;18.160;2024-03-23T02:25:13;11.40;;;3.50;;
81298;SDS011;70766;53.170;18.160;2024-03-23T02:27:41;12.90;;;2.90;;
81298;SDS011;70766;53.170;18.160;2024-03-23T02:30:09;10.60;;;2.90;;
81298;SDS011;70766;53.170;18.160;2024-03-23T02:32:43;14.80;;;3.20;;
81298;SDS011;70766;53.170;18.160;2024-03-23T02:35:10;12.50;;;2.90;;
81298;SDS011;70766;53.170;18.160;2024-03-23T02:37:38;18.50;;;3.00;;
81298;SDS011;70766;53.170;18.160;2024-03-23T02:40:06;11.60;;;2.90;;
81298;SDS011;70766;53.170;18.160;2024-03-23T02:42:34;11.90;;;2.90;;
81298;SDS011;70766;53.170;18.160;2024-03-23T02:45:02;12.10;;;2.60;;
81298;SDS011;70766;53.170;18.160;2024-03-23T02:47:33;11.20;;;2.60;;
81298;SDS011;70766;53.170;18.160;2024-03-23T02:50:01;10.60;;;2.90;;
81298;SDS011;70766;53.170;18.160;2024-03-23T02:52:29;11.10;;;2.70;;
81298;SDS011;70766;53.170;18.160;2024-03-23T02:54:57;11.60;;;2.80;;
81298;SDS011;70766;53.170;18.160;2024-03-23T02:57:25;15.90;;;3.10;;
81298;SDS011;70766;53.170;18.160;2024-03-23T02:59:54;10.80;;;3.00;;
81298;SDS011;70766;53.170;18.160;2024-03-23T03:06:58;13.30;;;2.90;;
81298;SDS011;70766;53.170;18.160;2024-03-23T03:09:26;11.80;;;2.60;;
81298;SDS011;70766;53.170;18.160;2024-03-23T03:11:53;12.60;;;3.20;;
81298;SDS011;70766;53.170;18.160;2024-03-23T03:14:21;12.20;;;2.70;;
81298;SDS011;70766;53.170;18.160;2024-03-23T03:16:50;10.20;;;2.40;;
81298;SDS011;70766;53.170;18.160;2024-03-23T03:19:18;16.70;;;4.30;;
81298;SDS011;70766;53.170;18.160;2024-03-23T03:21:46;14.60;;;3.50;;
81298;SDS011;70766;53.170;18.160;2024-03-23T03:24:15;12.40;;;3.80;;
81298;SDS011;70766;53.170;18.160;2024-03-23T03:26:43;16.40;;;4.20;;
81298;SDS011;70766;53.170;18.160;2024-03-23T03:29:11;12.80;;;4.70;;
81298;SDS011;70766;53.170;18.160;2024-03-23T03:31:39;18.00;;;4.30;;
81298;SDS011;70766;53.170;18.160;2024-03-23T03:34:07;11.50;;;4.10;;
81298;SDS011;70766;53.170;18.160;2024-03-23T03:36:35;9.20;;;3.10;;
81298;SDS011;70766;53.170;18.160;2024-03-23T03:39:03;12.40;;;3.30;;
81298;SDS011;70766;53.170;18.160;2024-03-23T03:41:31;12.40;;;3.40;;
81298;SDS011;70766;53.170;18.160;2024-03-23T03:44:00;17.80;;;3.10;;
81298;SDS011;70766;53.170;18.160;2024-03-23T03:46:29;10.80;;;3.20;;
81298;SDS011;70766;53.170;18.160;2024-03-23T03:48:57;13.90;;;3.00;;
81298;SDS011;70766;53.170;18.160;2024-03-23T03:51:25;11.00;;;2.90;;
81298;SDS011;70766;53.170;18.160;2024-03-23T03:53:53;10.30;;;2.80;;
81298;SDS011;70766;53.170;18.160;2024-03-23T03:56:20;9.50;;;2.90;;
81298;SDS011;70766;53.170;18.160;2024-03-23T03:58:49;10.10;;;3.10;;
81298;SDS011;70766;53.170;18.160;2024-03-23T04:01:17;12.30;;;3.20;;
81298;SDS011;70766;53.170;18.160;2024-03-23T04:03:45;17.00;;;3.60;;
81298;SDS011;70766;53.170;18.160;2024-03-23T04:06:19;11.20;;;2.70;;
81298;SDS011;70766;53.170;18.160;2024-03-23T04:08:48;9.80;;;3.10;;
81298;SDS011;70766;53.170;18.160;2024-03-23T04:11:16;13.00;;;3.10;;
81298;SDS011;70766;53.170;18.160;2024-03-23T04:13:44;8.80;;;2.50;;
81298;SDS011;70766;53.170;18.160;2024-03-23T04:16:12;10.80;;;3.70;;
81298;SDS011;70766;53.170;18.160;2024-03-23T04:18:40;11.20;;;3.00;;
81298;SDS011;70766;53.170;18.160;2024-03-23T04:21:08;11.20;;;3.00;;
81298;SDS011;70766;53.170;18.160;2024-03-23T04:23:35;15.30;;;2.90;;
81298;SDS011;70766;53.170;18.160;2024-03-23T04:26:03;12.50;;;3.10;;
81298;SDS011;70766;53.170;18.160;2024-03-23T04:28:32;11.40;;;3.50;;
81298;SDS011;70766;53.170;18.160;2024-03-23T04:31:04;19.90;;;3.00;;
81298;SDS011;70766;53.170;18.160;2024-03-23T04:33:33;15.80;;;3.30;;
81298;SDS011;70766;53.170;18.160;2024-03-23T04:36:00;14.20;;;3.10;;
81298;SDS011;70766;53.170;18.160;2024-03-23T04:38:28;8.90;;;3.30;;
81298;SDS011;70766;53.170;18.160;2024-03-23T04:40:57;12.80;;;3.20;;
81298;SDS011;70766;53.170;18.160;2024-03-23T04:43:26;10.20;;;2.90;;
81298;SDS011;70766;53.170;18.160;2024-03-23T04:45:54;13.00;;;3.10;;
81298;SDS011;70766;53.170;18.160;2024-03-23T04:48:22;9.20;;;2.80;;
81298;SDS011;70766;53.170;18.160;2024-03-23T04:50:54;12.20;;;3.50;;
81298;SDS011;70766;53.170;18.160;2024-03-23T04:53:25;11.90;;;3.30;;
81298;SDS011;70766;53.170;18.160;2024-03-23T04:55:56;11.90;;;3.60;;
81298;SDS011;70766;53.170;18.160;2024-03-23T04:58:24;13.40;;;3.90;;
81298;SDS011;70766;53.170;18.160;2024-03-23T05:00:56;14.50;;;3.60;;
81298;SDS011;70766;53.170;18.160;2024-03-23T05:03:25;17.00;;;3.70;;
81298;SDS011;70766;53.170;18.160;2024-03-23T05:05:53;11.90;;;4.10;;
81298;SDS011;70766;53.170;18.160;2024-03-23T05:08:23;13.20;;;4.30;;
81298;SDS011;70766;53.170;18.160;2024-03-23T05:13:48;16.40;;;4.70;;
81298;SDS011;70766;53.170;18.160;2024-03-23T05:16:16;12.60;;;2.90;;
81298;SDS011;70766;53.170;18.160;2024-03-23T05:18:43;14.40;;;3.30;;
81298;SDS011;70766;53.170;18.160;2024-03-23T05:21:11;12.00;;;3.70;;
81298;SDS011;70766;53.170;18.160;2024-03-23T05:23:39;12.10;;;3.40;;
81298;SDS011;70766;53.170;18.160;2024-03-23T05:30:41;10.40;;;3.70;;
81298;SDS011;70766;53.170;18.160;2024-03-23T05:37:44;12.70;;;3.10;;
81298;SDS011;70766;53.170;18.160;2024-03-23T05:40:12;10.80;;;2.80;;
81298;SDS011;70766;53.170;18.160;2024-03-23T05:42:42;11.80;;;3.70;;
81298;SDS011;70766;53.170;18.160;2024-03-23T05:45:10;14.40;;;4.00;;
81298;SDS011;70766;53.170;18.160;2024-03-23T05:47:39;11.00;;;3.40;;
81298;SDS011;70766;53.170;18.160;2024-03-23T05:50:07;18.20;;;4.20;;
81298;SDS011;70766;53.170;18.160;2024-03-23T05:52:37;14.40;;;4.50;;
81298;SDS011;70766;53.170;18.160;2024-03-23T05:55:06;15.80;;;4.30;;
81298;SDS011;70766;53.170;18.160;2024-03-23T05:57:34;17.40;;;5.50;;
81298;SDS011;70766;53.170;18.160;2024-03-23T06:00:02;17.40;;;4.50;;
81298;SDS011;70766;53.170;18.160;2024-03-23T06:02:38;16.10;;;3.90;;
81298;SDS011;70766;53.170;18.160;2024-03-23T06:05:06;17.70;;;2.80;;
81298;SDS011;70766;53.170;18.160;2024-03-23T06:07:35;14.30;;;3.90;;
81298;SDS011;70766;53.170;18.160;2024-03-23T06:10:03;17.50;;;4.00;;
81298;SDS011;70766;53.170;18.160;2024-03-23T06:12:33;10.10;;;2.80;;
81298;SDS011;70766;53.170;18.160;2024-03-23T06:15:01;7.60;;;2.60;;
81298;SDS011;70766;53.170;18.160;2024-03-23T06:17:29;7.90;;;2.60;;
81298;SDS011;70766;53.170;18.160;2024-03-23T06:24:30;10.90;;;2.80;;
81298;SDS011;70766;53.170;18.160;2024-03-23T06:26:58;13.10;;;2.90;;
81298;SDS011;70766;53.170;18.160;2024-03-23T06:29:26;8.60;;;2.40;;
81298;SDS011;70766;53.170;18.160;2024-03-23T06:31:54;12.30;;;2.60;;
81298;SDS011;70766;53.170;18.160;2024-03-23T06:34:22;17.00;;;4.30;;
81298;SDS011;70766;53.170;18.160;2024-03-23T06:36:51;12.80;;;3.90;;
81298;SDS011;70766;53.170;18.160;2024-03-23T06:39:18;42.00;;;10.50;;
81298;SDS011;70766;53.170;18.160;2024-03-23T06:41:52;13.30;;;3.50;;
81298;SDS011;70766;53.170;18.160;2024-03-23T06:44:21;15.30;;;3.30;;
81298;SDS011;70766;53.170;18.160;2024-03-23T06:46:49;21.10;;;5.40;;
81298;SDS011;70766;53.170;18.160;2024-03-23T06:49:17;13.00;;;3.50;;
81298;SDS011;70766;53.170;18.160;2024-03-23T06:51:48;15.60;;;3.50;;
81298;SDS011;70766;53.170;18.160;2024-03-23T06:58:50;14.70;;;2.40;;
81298;SDS011;70766;53.170;18.160;2024-03-23T07:05:57;12.70;;;2.70;;
81298;SDS011;70766;53.170;18.160;2024-03-23T07:08:26;35.50;;;7.50;;
81298;SDS011;70766;53.170;18.160;2024-03-23T07:10:54;14.30;;;2.50;;
81298;SDS011;70766;53.170;18.160;2024-03-23T07:13:21;24.50;;;5.60;;
81298;SDS011;70766;53.170;18.160;2024-03-23T07:15:53;16.10;;;3.10;;
81298;SDS011;70766;53.170;18.160;2024-03-23T07:18:23;13.30;;;2.80;;
81298;SDS011;70766;53.170;18.160;2024-03-23T07:20:51;70.60;;;15.30;;
81298;SDS011;70766;53.170;18.160;2024-03-23T07:23:24;29.80;;;7.30;;
81298;SDS011;70766;53.170;18.160;2024-03-23T07:25:56;18.00;;;3.80;;
81298;SDS011;70766;53.170;18.160;2024-03-23T07:32:58;10.10;;;3.20;;
81298;SDS011;70766;53.170;18.160;2024-03-23T07:35:26;9.40;;;2.90;;
81298;SDS011;70766;53.170;18.160;2024-03-23T07:37:54;13.90;;;3.20;;
81298;SDS011;70766;53.170;18.160;2024-03-23T07:40:22;8.40;;;2.90;;
81298;SDS011;70766;53.170;18.160;2024-03-23T07:42:52;10.30;;;3.40;;
81298;SDS011;70766;53.170;18.160;2024-03-23T07:49:53;7.80;;;2.40;;
81298;SDS011;70766;53.170;18.160;2024-03-23T07:52:21;11.00;;;2.80;;
81298;SDS011;70766;53.170;18.160;2024-03-23T07:54:49;9.40;;;2.40;;
81298;SDS011;70766;53.170;18.160;2024-03-23T07:57:17;9.70;;;3.30;;
81298;SDS011;70766;53.170;18.160;2024-03-23T07:59:45;11.50;;;2.70;;
81298;SDS011;70766;53.170;18.160;2024-03-23T08:02:13;13.40;;;2.50;;
81298;SDS011;70766;53.170;18.160;2024-03-23T08:04:41;11.30;;;2.00;;
81298;SDS011;70766;53.170;18.160;2024-03-23T08:07:09;9.60;;;2.50;;
81298;SDS011;70766;53.170;18.160;2024-03-23T08:09:37;9.20;;;2.80;;
81298;SDS011;70766;53.170;18.160;2024-03-23T08:12:05;14.10;;;2.60;;
81298;SDS011;70766;53.170;18.160;2024-03-23T08:14:33;9.50;;;2.40;;
81298;SDS011;70766;53.170;18.160;2024-03-23T08:17:01;10.20;;;2.60;;
81298;SDS011;70766;53.170;18.160;2024-03-23T08:19:29;11.90;;;2.70;;
81298;SDS011;70766;53.170;18.160;2024-03-23T08:21:56;6.40;;;1.60;;
81298;SDS011;70766;53.170;18.160;2024-03-23T08:24:24;10.60;;;2.40;;
81298;SDS011;70766;53.170;18.160;2024-03-23T08:26:54;12.20;;;2.60;;
81298;SDS011;70766;53.170;18.160;2024-03-23T08:29:23;12.30;;;2.90;;
81298;SDS011;70766;53.170;18.160;2024-03-23T08:31:51;12.50;;;3.40;;
81298;SDS011;70766;53.170;18.160;2024-03-23T08:34:19;16.50;;;3.60;;
81298;SDS011;70766;53.170;18.160;2024-03-23T08:41:22;8.40;;;2.40;;
81298;SDS011;70766;53.170;18.160;2024-03-23T08:43:51;11.10;;;3.10;;
81298;SDS011;70766;53.170;18.160;2024-03-23T08:46:20;9.80;;;2.00;;
81298;SDS011;70766;53.170;18.160;2024-03-23T08:48:48;7.50;;;2.10;;
81298;SDS011;70766;53.170;18.160;2024-03-23T08:51:21;8.70;;;1.40;;
81298;SDS011;70766;53.170;18.160;2024-03-23T08:53:49;6.50;;;1.90;;
81298;SDS011;70766;53.170;18.160;2024-03-23T08:56:17;5.90;;;1.90;;
81298;SDS011;70766;53.170;18.160;2024-03-23T08:58:47;9.60;;;1.90;;
81298;SDS011;70766;53.170;18.160;2024-03-23T09:01:16;7.90;;;2.00;;
81298;SDS011;70766;53.170;18.160;2024-03-23T09:03:44;8.40;;;2.00;;
81298;SDS011;70766;53.170;18.160;2024-03-23T09:06:15;6.70;;;1.50;;
81298;SDS011;70766;53.170;18.160;2024-03-23T09:08:45;9.30;;;1.80;;
81298;SDS011;70766;53.170;18.160;2024-03-23T09:11:13;8.30;;;1.80;;
81298;SDS011;70766;53.170;18.160;2024-03-23T09:13:41;8.20;;;2.70;;
81298;SDS011;70766;53.170;18.160;2024-03-23T09:20:44;11.00;;;2.50;;
81298;SDS011;70766;53.170;18.160;2024-03-23T09:23:12;6.50;;;1.40;;
81298;SDS011;70766;53.170;18.160;2024-03-23T09:25:40;7.50;;;1.80;;
81298;SDS011;70766;53.170;18.160;2024-03-23T09:28:09;4.80;;;1.30;;
81298;SDS011;70766;53.170;18.160;2024-03-23T09:30:40;6.30;;;1.50;;
81298;SDS011;70766;53.170;18.160;2024-03-23T09:33:12;5.30;;;1.60;;
81298;SDS011;70766;53.170;18.160;2024-03-23T09:35:42;3.80;;;1.10;;
81298;SDS011;70766;53.170;18.160;2024-03-23T09:38:13;5.00;;;1.50;;
81298;SDS011;70766;53.170;18.160;2024-03-23T09:45:19;3.80;;;1.20;;
81298;SDS011;70766;53.170;18.160;2024-03-23T09:57:03;3.70;;;1.40;;
81298;SDS011;70766;53.170;18.160;2024-03-23T09:59:33;4.80;;;1.10;;
81298;SDS011;70766;53.170;18.160;2024-03-23T10:11:25;4.60;;;1.50;;
81298;SDS011;70766;53.170;18.160;2024-03-23T10:14:04;3.30;;;1.10;;
81298;SDS011;70766;53.170;18.160;2024-03-23T10:24:46;6.10;;;1.10;;
81298;SDS011;70766;53.170;18.160;2024-03-23T10:27:18;3.10;;;0.80;;
81298;SDS011;70766;53.170;18.160;2024-03-23T10:29:54;4.60;;;1.00;;
81298;SDS011;70766;53.170;18.160;2024-03-23T10:33:20;4.40;;;0.80;;
81298;SDS011;70766;53.170;18.160;2024-03-23T10:36:11;2.30;;;0.60;;
81298;SDS011;70766;53.170;18.160;2024-03-23T10:39:15;6.30;;;1.10;;
81298;SDS011;70766;53.170;18.160;2024-03-23T10:41:45;3.90;;;0.90;;
81298;SDS011;70766;53.170;18.160;2024-03-23T10:48:48;3.80;;;1.50;;
81298;SDS011;70766;53.170;18.160;2024-03-23T10:51:21;9.20;;;1.60;;
81298;SDS011;70766;53.170;18.160;2024-03-23T10:53:49;5.30;;;1.30;;
81298;SDS011;70766;53.170;18.160;2024-03-23T10:56:22;3.50;;;1.00;;
81298;SDS011;70766;53.170;18.160;2024-03-23T10:59:01;3.10;;;1.00;;
81298;SDS011;70766;53.170;18.160;2024-03-23T11:01:53;4.20;;;1.10;;
81298;SDS011;70766;53.170;18.160;2024-03-23T11:04:38;6.10;;;1.50;;
81298;SDS011;70766;53.170;18.160;2024-03-23T11:09:53;2.90;;;0.90;;
81298;SDS011;70766;53.170;18.160;2024-03-23T11:17:13;4.90;;;1.30;;
81298;SDS011;70766;53.170;18.160;2024-03-23T11:25:19;4.40;;;1.40;;
81298;SDS011;70766;53.170;18.160;2024-03-23T11:32:16;4.30;;;1.20;;
81298;SDS011;70766;53.170;18.160;2024-03-23T11:34:44;7.80;;;1.80;;
81298;SDS011;70766;53.170;18.160;2024-03-23T11:44:16;2.10;;;1.10;;
81298;SDS011;70766;53.170;18.160;2024-03-23T11:46:55;6.00;;;1.70;;
81298;SDS011;70766;53.170;18.160;2024-03-23T11:49:37;3.20;;;1.40;;
81298;SDS011;70766;53.170;18.160;2024-03-23T11:52:08;8.90;;;2.30;;
81298;SDS011;70766;53.170;18.160;2024-03-23T11:54:37;2.70;;;0.90;;
81298;SDS011;70766;53.170;18.160;2024-03-23T11:57:07;9.50;;;1.80;;
81298;SDS011;70766;53.170;18.160;2024-03-23T11:59:37;4.10;;;1.30;;
81298;SDS011;70766;53.170;18.160;2024-03-23T12:02:11;5.50;;;1.30;;
81298;SDS011;70766;53.170;18.160;2024-03-23T12:04:43;9.20;;;2.60;;
81298;SDS011;70766;53.170;18.160;2024-03-23T12:07:12;5.60;;;1.60;;
81298;SDS011;70766;53.170;18.160;2024-03-23T12:09:41;4.20;;;1.10;;
81298;SDS011;70766;53.170;18.160;2024-03-23T12:16:43;7.80;;;1.50;;
81298;SDS011;70766;53.170;18.160;2024-03-23T12:19:11;6.20;;;1.60;;
81298;SDS011;70766;53.170;18.160;2024-03-23T12:21:39;4.50;;;1.40;;
81298;SDS011;70766;53.170;18.160;2024-03-23T12:24:07;7.30;;;1.90;;
81298;SDS011;70766;53.170;18.160;2024-03-23T12:26:35;6.60;;;1.80;;
81298;SDS011;70766;53.170;18.160;2024-03-23T12:29:05;6.20;;;1.60;;
81298;SDS011;70766;53.170;18.160;2024-03-23T12:31:33;4.60;;;1.30;;
81298;SDS011;70766;53.170;18.160;2024-03-23T12:34:00;5.40;;;1.90;;
81298;SDS011;70766;53.170;18.160;2024-03-23T12:36:29;11.00;;;2.40;;
81298;SDS011;70766;53.170;18.160;2024-03-23T12:39:24;6.90;;;2.80;;
81298;SDS011;70766;53.170;18.160;2024-03-23T12:42:10;7.50;;;2.40;;
81298;SDS011;70766;53.170;18.160;2024-03-23T12:49:13;8.10;;;3.50;;
81298;SDS011;70766;53.170;18.160;2024-03-23T12:51:46;11.30;;;3.00;;
81298;SDS011;70766;53.170;18.160;2024-03-23T12:54:22;6.70;;;3.00;;
81298;SDS011;70766;53.170;18.160;2024-03-23T12:56:51;12.50;;;3.50;;
81298;SDS011;70766;53.170;18.160;2024-03-23T12:59:19;14.00;;;4.30;;
81298;SDS011;70766;53.170;18.160;2024-03-23T13:01:47;10.60;;;3.60;;
81298;SDS011;70766;53.170;18.160;2024-03-23T13:04:15;9.30;;;3.50;;
81298;SDS011;70766;53.170;18.160;2024-03-23T13:06:44;7.00;;;2.00;;
81298;SDS011;70766;53.170;18.160;2024-03-23T13:09:12;12.60;;;2.60;;
81298;SDS011;70766;53.170;18.160;2024-03-23T13:11:40;4.00;;;1.40;;
81298;SDS011;70766;53.170;18.160;2024-03-23T13:14:08;3.70;;;1.10;;
81298;SDS011;70766;53.170;18.160;2024-03-23T13:16:35;2.80;;;1.30;;
81298;SDS011;70766;53.170;18.160;2024-03-23T13:19:03;1.10;;;0.50;;
81298;SDS011;70766;53.170;18.160;2024-03-23T13:21:31;2.60;;;1.40;;
81298;SDS011;70766;53.170;18.160;2024-03-23T13:23:59;4.80;;;1.30;;
81298;SDS011;70766;53.170;18.160;2024-03-23T13:26:27;3.60;;;1.30;;
81298;SDS011;70766;53.170;18.160;2024-03-23T13:28:55;6.10;;;1.10;;
81298;SDS011;70766;53.170;18.160;2024-03-23T13:36:08;5.90;;;2.00;;
81298;SDS011;70766;53.170;18.160;2024-03-23T13:38:36;4.00;;;1.70;;
81298;SDS011;70766;53.170;18.160;2024-03-23T13:50:15;4.70;;;1.50;;
81298;SDS011;70766;53.170;18.160;2024-03-23T13:52:44;3.20;;;1.30;;
81298;SDS011;70766;53.170;18.160;2024-03-23T13:55:12;5.30;;;1.70;;
81298;SDS011;70766;53.170;18.160;2024-03-23T13:57:43;5.10;;;1.30;;
81298;SDS011;70766;53.170;18.160;2024-03-23T14:09:23;3.70;;;1.20;;
81298;SDS011;70766;53.170;18.160;2024-03-23T14:11:53;3.70;;;1.20;;
81298;SDS011;70766;53.170;18.160;2024-03-23T14:18:56;6.10;;;1.50;;
81298;SDS011;70766;53.170;18.160;2024-03-23T14:21:25;6.10;;;1.70;;
81298;SDS011;70766;53.170;18.160;2024-03-23T14:23:53;3.80;;;1.20;;
81298;SDS011;70766;53.170;18.160;2024-03-23T14:35:41;5.10;;;1.20;;
81298;SDS011;70766;53.170;18.160;2024-03-23T14:38:09;4.10;;;1.40;;
81298;SDS011;70766;53.170;18.160;2024-03-23T14:40:37;6.60;;;1.30;;
81298;SDS011;70766;53.170;18.160;2024-03-23T14:43:05;3.40;;;1.10;;
81298;SDS011;70766;53.170;18.160;2024-03-23T14:45:33;2.60;;;0.90;;
81298;SDS011;70766;53.170;18.160;2024-03-23T14:52:35;3.30;;;1.10;;
81298;SDS011;70766;53.170;18.160;2024-03-23T14:55:03;2.70;;;1.10;;
81298;SDS011;70766;53.170;18.160;2024-03-23T14:57:31;1.70;;;0.80;;
81298;SDS011;70766;53.170;18.160;2024-03-23T15:00:00;3.40;;;0.90;;
81298;SDS011;70766;53.170;18.160;2024-03-23T15:02:28;0.70;;;0.40;;
81298;SDS011;70766;53.170;18.160;2024-03-23T15:05:00;3.20;;;1.00;;
81298;SDS011;70766;53.170;18.160;2024-03-23T15:07:33;6.90;;;0.70;;
81298;SDS011;70766;53.170;18.160;2024-03-23T15:14:34;2.10;;;1.00;;
81298;SDS011;70766;53.170;18.160;2024-03-23T15:21:36;3.50;;;0.80;;
81298;SDS011;70766;53.170;18.160;2024-03-23T15:24:06;3.00;;;0.90;;
81298;SDS011;70766;53.170;18.160;2024-03-23T15:26:38;1.50;;;0.50;;
81298;SDS011;70766;53.170;18.160;2024-03-23T15:29:06;1.70;;;0.80;;
81298;SDS011;70766;53.170;18.160;2024-03-23T15:31:39;4.30;;;1.20;;
81298;SDS011;70766;53.170;18.160;2024-03-23T15:34:07;1.60;;;0.80;;
81298;SDS011;70766;53.170;18.160;2024-03-23T15:36:38;3.80;;;0.90;;
81298;SDS011;70766;53.170;18.160;2024-03-23T15:39:08;4.80;;;1.10;;
81298;SDS011;70766;53.170;18.160;2024-03-23T15:41:36;3.60;;;0.70;;
81298;SDS011;70766;53.170;18.160;2024-03-23T15:44:04;1.50;;;0.60;;
81298;SDS011;70766;53.170;18.160;2024-03-23T15:46:33;2.20;;;0.70;;
81298;SDS011;70766;53.170;18.160;2024-03-23T15:49:02;2.60;;;1.30;;
81298;SDS011;70766;53.170;18.160;2024-03-23T15:51:30;1.60;;;0.60;;
81298;SDS011;70766;53.170;18.160;2024-03-23T15:54:02;1.10;;;0.60;;
81298;SDS011;70766;53.170;18.160;2024-03-23T15:56:31;3.80;;;1.10;;
81298;SDS011;70766;53.170;18.160;2024-03-23T15:59:02;4.30;;;1.20;;
81298;SDS011;70766;53.170;18.160;2024-03-23T16:01:35;4.50;;;1.00;;
81298;SDS011;70766;53.170;18.160;2024-03-23T16:13:32;2.60;;;0.90;;
81298;SDS011;70766;53.170;18.160;2024-03-23T16:16:02;3.20;;;1.10;;
81298;SDS011;70766;53.170;18.160;2024-03-23T16:18:37;2.30;;;0.90;;
81298;SDS011;70766;53.170;18.160;2024-03-23T16:25:46;5.70;;;1.30;;
81298;SDS011;70766;53.170;18.160;2024-03-23T16:28:25;7.60;;;1.90;;
81298;SDS011;70766;53.170;18.160;2024-03-23T16:31:02;4.90;;;1.60;;
81298;SDS011;70766;53.170;18.160;2024-03-23T16:33:53;7.00;;;2.30;;
81298;SDS011;70766;53.170;18.160;2024-03-23T16:36:59;3.40;;;1.30;;
81298;SDS011;70766;53.170;18.160;2024-03-23T16:39:27;5.70;;;1.90;;
81298;SDS011;70766;53.170;18.160;2024-03-23T16:41:57;6.30;;;2.10;;
81298;SDS011;70766;53.170;18.160;2024-03-23T16:44:25;6.20;;;1.90;;
81298;SDS011;70766;53.170;18.160;2024-03-23T16:46:55;8.20;;;2.60;;
81298;SDS011;70766;53.170;18.160;2024-03-23T16:49:24;4.90;;;2.10;;
81298;SDS011;70766;53.170;18.160;2024-03-23T16:51:52;13.80;;;2.50;;
81298;SDS011;70766;53.170;18.160;2024-03-23T16:54:23;7.90;;;2.90;;
81298;SDS011;70766;53.170;18.160;2024-03-23T16:56:51;4.60;;;2.10;;
81298;SDS011;70766;53.170;18.160;2024-03-23T16:59:27;7.50;;;2.20;;
81298;SDS011;70766;53.170;18.160;2024-03-23T17:01:58;3.20;;;1.60;;
81298;SDS011;70766;53.170;18.160;2024-03-23T17:04:26;12.30;;;3.50;;
81298;SDS011;70766;53.170;18.160;2024-03-23T17:06:57;5.60;;;2.10;;
81298;SDS011;70766;53.170;18.160;2024-03-23T17:09:26;7.30;;;2.20;;
81298;SDS011;70766;53.170;18.160;2024-03-23T17:11:56;5.40;;;1.60;;
81298;SDS011;70766;53.170;18.160;2024-03-23T17:14:28;6.70;;;1.80;;
81298;SDS011;70766;53.170;18.160;2024-03-23T17:17:06;5.40;;;2.50;;
81298;SDS011;70766;53.170;18.160;2024-03-23T17:19:36;6.60;;;2.00;;
81298;SDS011;70766;53.170;18.160;2024-03-23T17:26:40;9.70;;;2.50;;
81298;SDS011;70766;53.170;18.160;2024-03-23T17:29:08;7.10;;;2.40;;
81298;SDS011;70766;53.170;18.160;2024-03-23T17:31:37;8.50;;;2.50;;
81298;SDS011;70766;53.170;18.160;2024-03-23T17:34:05;6.60;;;1.80;;
81298;SDS011;70766;53.170;18.160;2024-03-23T17:36:34;6.30;;;2.20;;
81298;SDS011;70766;53.170;18.160;2024-03-23T17:39:04;6.40;;;2.30;;
81298;SDS011;70766;53.170;18.160;2024-03-23T17:41:37;7.30;;;2.50;;
81298;SDS011;70766;53.170;18.160;2024-03-23T17:44:05;6.60;;;2.70;;
81298;SDS011;70766;53.170;18.160;2024-03-23T17:46:36;7.90;;;2.30;;
81298;SDS011;70766;53.170;18.160;2024-03-23T17:49:04;6.70;;;2.30;;
81298;SDS011;70766;53.170;18.160;2024-03-23T17:51:32;8.00;;;2.40;;
81298;SDS011;70766;53.170;18.160;2024-03-23T17:54:03;5.70;;;2.40;;
81298;SDS011;70766;53.170;18.160;2024-03-23T17:56:31;7.80;;;2.20;;
81298;SDS011;70766;53.170;18.160;2024-03-23T17:58:59;8.50;;;3.10;;
81298;SDS011;70766;53.170;18.160;2024-03-23T18:01:28;11.60;;;2.60;;
81298;SDS011;70766;53.170;18.160;2024-03-23T18:03:56;8.20;;;2.80;;
81298;SDS011;70766;53.170;18.160;2024-03-23T18:06:24;10.00;;;3.00;;
81298;SDS011;70766;53.170;18.160;2024-03-23T18:08:53;11.30;;;3.30;;
81298;SDS011;70766;53.170;18.160;2024-03-23T18:11:32;13.10;;;3.30;;
81298;SDS011;70766;53.170;18.160;2024-03-23T18:14:02;10.40;;;3.50;;
81298;SDS011;70766;53.170;18.160;2024-03-23T18:16:30;12.40;;;4.10;;
81298;SDS011;70766;53.170;18.160;2024-03-23T18:18:59;11.70;;;4.00;;
81298;SDS011;70766;53.170;18.160;2024-03-23T18:21:27;14.70;;;5.00;;
81298;SDS011;70766;53.170;18.160;2024-03-23T18:23:57;15.90;;;4.60;;
81298;SDS011;70766;53.170;18.160;2024-03-23T18:26:25;13.20;;;4.20;;
81298;SDS011;70766;53.170;18.160;2024-03-23T18:28:53;10.70;;;4.00;;
81298;SDS011;70766;53.170;18.160;2024-03-23T18:31:21;11.80;;;3.30;;
81298;SDS011;70766;53.170;18.160;2024-03-23T18:33:50;12.50;;;4.40;;
81298;SDS011;70766;53.170;18.160;2024-03-23T18:36:20;13.20;;;3.80;;
81298;SDS011;70766;53.170;18.160;2024-03-23T18:38:50;20.50;;;5.80;;
81298;SDS011;70766;53.170;18.160;2024-03-23T18:41:18;14.10;;;3.80;;
81298;SDS011;70766;53.170;18.160;2024-03-23T18:43:46;24.00;;;5.60;;